createdAt,value
2019-02-03T00:01:40.080Z,48.88
2019-02-03T00:04:06.157Z,49.38
2019-02-03T00:06:32.140Z,48.78
2019-02-03T00:08:58.218Z,48.99
2019-02-03T00:11:24.198Z,49.04
2019-02-03T00:13:50.265Z,48.99
2019-02-03T00:16:16.292Z,49.17
2019-02-03T00:18:44.976Z,49.35
2019-02-03T00:21:10.126Z,49.04
2019-02-03T00:23:36.172Z,49.09
2019-02-03T00:26:02.563Z,49.07
2019-02-03T00:28:28.627Z,49.13
2019-02-03T00:30:54.624Z,49.04
2019-02-03T00:33:20.798Z,49.18
2019-02-03T00:35:46.824Z,49.26
2019-02-03T00:38:20.101Z,49.34
2019-02-03T00:40:40.577Z,49.08
2019-02-03T00:43:07.032Z,48.95
2019-02-03T00:45:33.029Z,49.17
2019-02-03T00:47:59.126Z,49.25
2019-02-03T00:50:26.222Z,51.28
2019-02-03T00:52:52.227Z,50.38
2019-02-03T00:55:18.246Z,49.48
2019-02-03T00:57:44.317Z,48.52
2019-02-03T01:00:10.764Z,48.99
2019-02-03T01:02:36.792Z,48.51
2019-02-03T01:05:02.862Z,49.08
2019-02-03T01:07:28.942Z,48.52
2019-02-03T01:09:54.996Z,48.59
2019-02-03T01:12:21.024Z,48.88
2019-02-03T01:14:47.015Z,48.66
2019-02-03T01:17:13.148Z,48.62
2019-02-03T01:19:39.151Z,48.21
2019-02-03T01:22:05.144Z,48.84
2019-02-03T01:24:31.171Z,48.83
2019-02-03T01:26:57.214Z,48.76
2019-02-03T01:29:23.231Z,48.80
2019-02-03T01:31:49.395Z,48.72
2019-02-03T01:34:15.558Z,48.71
2019-02-03T01:36:41.922Z,48.54
2019-02-03T01:39:08.012Z,48.64
2019-02-03T01:41:34.002Z,48.50
2019-02-03T01:44:00.107Z,48.11
2019-02-03T01:46:26.128Z,48.99
2019-02-03T01:48:52.126Z,48.35
2019-02-03T01:51:18.161Z,48.27
2019-02-03T01:53:44.157Z,48.53
2019-02-03T01:56:10.135Z,48.18
2019-02-03T01:58:36.188Z,48.50
2019-02-03T02:01:02.194Z,48.15
2019-02-03T02:03:28.190Z,47.86
2019-02-03T02:05:54.192Z,48.07
2019-02-03T02:08:20.289Z,48.22
2019-02-03T02:10:46.362Z,48.77
2019-02-03T02:13:12.670Z,48.29
2019-02-03T02:15:38.713Z,48.98
2019-02-03T02:18:04.755Z,49.01
2019-02-03T02:20:30.831Z,48.20
2019-02-03T02:22:56.833Z,48.17
2019-02-03T02:25:22.830Z,48.59
2019-02-03T02:27:48.840Z,48.22
2019-02-03T02:30:14.826Z,48.36
2019-02-03T02:32:40.827Z,48.71
2019-02-03T02:35:06.799Z,48.27
2019-02-03T02:37:32.805Z,48.48
2019-02-03T02:40:11.901Z,47.97
2019-02-03T02:42:26.567Z,48.09
2019-02-03T02:44:52.602Z,48.21
2019-02-03T02:47:18.644Z,48.23
2019-02-03T02:49:44.929Z,47.79
2019-02-03T02:52:10.937Z,47.67
2019-02-03T02:54:36.962Z,48.01
2019-02-03T02:57:02.962Z,48.47
2019-02-03T02:59:29.006Z,48.12
2019-02-03T03:01:54.984Z,48.27
2019-02-03T03:04:20.979Z,48.34
2019-02-03T03:06:47.032Z,48.48
2019-02-03T03:09:13.796Z,48.22
2019-02-03T03:11:39.876Z,48.24
2019-02-03T03:14:05.856Z,48.24
2019-02-03T03:16:31.857Z,48.47
2019-02-03T03:18:57.842Z,48.36
2019-02-03T03:21:23.826Z,48.42
2019-02-03T03:23:49.795Z,48.18
2019-02-03T03:26:16.177Z,48.33
2019-02-03T03:28:42.148Z,48.34
2019-02-03T03:31:08.145Z,48.15
2019-02-03T03:33:34.150Z,47.85
2019-02-03T03:36:00.225Z,48.07
2019-02-03T03:38:32.302Z,48.23
2019-02-03T03:40:54.108Z,47.98
2019-02-03T03:43:20.096Z,48.01
2019-02-03T03:45:46.212Z,47.98
2019-02-03T03:48:12.261Z,47.88
2019-02-03T03:50:38.255Z,48.25
2019-02-03T03:53:04.316Z,48.47
2019-02-03T03:55:30.314Z,48.31
2019-02-03T03:57:56.304Z,48.24
2019-02-03T04:00:22.418Z,48.71
2019-02-03T04:02:48.862Z,48.14
2019-02-03T04:05:14.901Z,48.26
2019-02-03T04:07:40.911Z,48.52
2019-02-03T04:10:06.907Z,48.18
2019-02-03T04:12:33.017Z,48.30
2019-02-03T04:14:58.997Z,48.41
2019-02-03T04:17:24.975Z,48.60
2019-02-03T04:19:52.738Z,47.88
2019-02-03T04:22:18.796Z,48.44
2019-02-03T04:24:44.801Z,47.94
2019-02-03T04:27:10.817Z,48.26
2019-02-03T04:29:36.851Z,48.07
2019-02-03T04:32:02.843Z,48.18
2019-02-03T04:34:29.907Z,48.44
2019-02-03T04:36:56.170Z,48.01
2019-02-03T04:39:22.707Z,47.88
2019-02-03T04:41:48.797Z,48.36
2019-02-03T04:44:14.839Z,48.35
2019-02-03T04:46:40.893Z,48.27
2019-02-03T04:49:06.922Z,48.34
2019-02-03T04:51:32.963Z,48.86
2019-02-03T04:53:58.986Z,48.23
2019-02-03T04:56:25.355Z,48.04
2019-02-03T04:58:51.439Z,47.70
2019-02-03T05:01:17.424Z,47.95
2019-02-03T05:03:43.421Z,47.89
2019-02-03T05:06:09.488Z,47.73
2019-02-03T05:08:35.464Z,47.54
2019-02-03T05:11:01.457Z,47.14
2019-02-03T05:13:27.439Z,47.15
2019-02-03T05:15:53.619Z,46.86
2019-02-03T05:18:19.806Z,47.01
2019-02-03T05:20:45.934Z,46.96
2019-02-03T05:23:11.943Z,46.85
2019-02-03T05:25:37.940Z,46.76
2019-02-03T05:28:03.937Z,46.73
2019-02-03T05:30:29.911Z,46.80
2019-02-03T05:32:56.055Z,46.66
2019-02-03T05:35:22.094Z,46.53
2019-02-03T05:37:48.154Z,46.64
2019-02-03T05:40:14.165Z,46.55
2019-02-03T05:42:40.275Z,46.58
2019-02-03T05:45:06.272Z,46.55
2019-02-03T05:47:32.268Z,46.58
2019-02-03T05:49:58.332Z,46.49
2019-02-03T05:52:24.684Z,46.48
2019-02-03T05:54:50.671Z,46.44
2019-02-03T05:57:16.672Z,46.54
2019-02-03T05:59:42.706Z,46.50
2019-02-03T06:02:10.089Z,46.46
2019-02-03T06:04:36.192Z,46.41
2019-02-03T06:07:02.184Z,46.43
2019-02-03T06:09:36.436Z,46.50
2019-02-03T06:11:55.904Z,46.42
2019-02-03T06:14:22.010Z,46.43
2019-02-03T06:16:48.063Z,46.41
2019-02-03T06:19:14.200Z,46.37
2019-02-03T06:21:40.178Z,46.31
2019-02-03T06:24:06.259Z,47.10
2019-02-03T06:26:32.246Z,46.47
2019-02-03T06:28:58.615Z,46.33
2019-02-03T06:31:24.618Z,46.27
2019-02-03T06:33:50.609Z,46.18
2019-02-03T06:36:16.581Z,46.30
2019-02-03T06:38:42.565Z,46.34
2019-02-03T06:41:08.544Z,46.30
2019-02-03T06:43:34.583Z,46.38
2019-02-03T06:46:00.955Z,46.28
2019-02-03T06:48:27.026Z,46.31
2019-02-03T06:50:53.126Z,46.45
2019-02-03T06:53:19.208Z,46.38
2019-02-03T06:55:45.212Z,46.30
2019-02-03T06:58:11.214Z,46.26
2019-02-03T07:00:37.280Z,46.39
2019-02-03T07:03:03.278Z,46.41
2019-02-03T07:05:29.318Z,46.38
2019-02-03T07:07:55.325Z,46.36
2019-02-03T07:10:21.311Z,46.22
2019-02-03T07:12:47.356Z,46.24
2019-02-03T07:15:13.341Z,46.12
2019-02-03T07:17:39.344Z,46.16
2019-02-03T07:20:05.431Z,46.20
2019-02-03T07:22:31.456Z,46.11
2019-02-03T07:24:57.484Z,46.15
2019-02-03T07:27:23.481Z,46.16
2019-02-03T07:29:49.529Z,46.15
2019-02-03T07:32:15.517Z,46.16
2019-02-03T07:34:41.534Z,46.10
2019-02-03T07:37:07.577Z,46.17
2019-02-03T07:39:33.556Z,46.19
2019-02-03T07:42:00.042Z,46.09
2019-02-03T07:44:26.014Z,46.11
2019-02-03T07:46:52.021Z,46.10
2019-02-03T07:49:18.008Z,46.11
2019-02-03T07:51:44.042Z,46.22
2019-02-03T07:54:10.100Z,46.10
2019-02-03T07:56:36.188Z,46.19
2019-02-03T07:59:02.183Z,46.10
2019-02-03T08:01:28.169Z,45.98
2019-02-03T08:03:54.163Z,46.04
2019-02-03T08:06:20.161Z,45.99
2019-02-03T08:08:46.182Z,45.96
2019-02-03T08:11:12.259Z,46.09
2019-02-03T08:13:38.287Z,46.01
2019-02-03T08:16:04.281Z,45.98
2019-02-03T08:18:30.276Z,46.01
2019-02-03T08:20:56.273Z,45.98
2019-02-03T08:23:22.329Z,46.02
2019-02-03T08:25:48.409Z,45.99
2019-02-03T08:28:14.483Z,46.01
2019-02-03T08:30:40.487Z,46.00
2019-02-03T08:33:06.505Z,45.92
2019-02-03T08:35:32.531Z,45.33
2019-02-03T08:37:58.571Z,45.33
2019-02-03T08:40:36.113Z,45.41
2019-02-03T08:42:52.280Z,45.72
2019-02-03T08:45:18.296Z,45.75
2019-02-03T08:47:45.460Z,46.01
2019-02-03T08:50:11.776Z,45.79
2019-02-03T08:52:37.795Z,45.71
2019-02-03T08:55:03.789Z,45.91
2019-02-03T08:57:30.044Z,46.08
2019-02-03T08:59:56.099Z,45.85
2019-02-03T09:02:22.219Z,46.18
2019-02-03T09:04:48.228Z,46.14
2019-02-03T09:07:14.247Z,45.97
2019-02-03T09:09:40.247Z,46.04
2019-02-03T09:12:06.334Z,46.28
2019-02-03T09:14:32.605Z,46.30
2019-02-03T09:16:58.592Z,46.31
2019-02-03T09:19:24.585Z,46.34
2019-02-03T09:21:50.597Z,46.50
2019-02-03T09:24:16.705Z,46.65
2019-02-03T09:26:42.673Z,46.82
2019-02-03T09:29:08.769Z,46.77
2019-02-03T09:31:34.758Z,46.47
2019-02-03T09:34:01.128Z,46.75
2019-02-03T09:36:27.112Z,46.54
2019-02-03T09:38:53.114Z,46.45
2019-02-03T09:41:19.119Z,46.41
2019-02-03T09:43:45.107Z,46.47
2019-02-03T09:46:11.121Z,46.37
2019-02-03T09:48:37.205Z,46.38
2019-02-03T09:51:03.223Z,46.69
2019-02-03T09:53:29.596Z,46.48
2019-02-03T09:55:55.679Z,46.69
2019-02-03T09:58:21.660Z,46.68
2019-02-03T10:00:47.744Z,46.82
2019-02-03T10:03:13.771Z,46.80
2019-02-03T10:05:39.757Z,46.75
2019-02-03T10:08:05.858Z,46.80
2019-02-03T10:10:31.852Z,46.94
2019-02-03T10:12:58.322Z,46.76
2019-02-03T10:15:24.353Z,46.88
2019-02-03T10:17:50.360Z,46.88
2019-02-03T10:20:16.387Z,46.91
2019-02-03T10:22:42.475Z,46.69
2019-02-03T10:25:08.635Z,46.68
2019-02-03T10:27:34.852Z,46.53
2019-02-03T10:30:01.251Z,46.56
2019-02-03T10:32:30.154Z,46.60
2019-02-03T10:34:55.004Z,46.57
2019-02-03T10:37:21.031Z,46.60
2019-02-03T10:39:47.007Z,46.71
2019-02-03T10:42:13.031Z,46.77
2019-02-03T10:44:39.030Z,46.67
2019-02-03T10:47:05.007Z,46.71
2019-02-03T10:49:32.242Z,46.74
2019-02-03T10:51:58.253Z,46.95
2019-02-03T10:54:24.282Z,46.90
2019-02-03T10:56:50.274Z,46.91
2019-02-03T10:59:16.332Z,46.88
2019-02-03T11:01:42.500Z,46.97
2019-02-03T11:04:08.587Z,46.81
2019-02-03T11:06:34.657Z,46.74
2019-02-03T11:09:01.006Z,46.62
2019-02-03T11:11:36.457Z,46.66
2019-02-03T11:13:54.727Z,46.64
2019-02-03T11:16:20.731Z,46.71
2019-02-03T11:18:46.832Z,46.62
2019-02-03T11:21:12.881Z,46.80
2019-02-03T11:23:40.474Z,46.81
2019-02-03T11:26:06.556Z,46.83
2019-02-03T11:28:32.549Z,46.74
2019-02-03T11:30:58.858Z,46.90
2019-02-03T11:33:24.985Z,46.88
2019-02-03T11:35:51.031Z,46.79
2019-02-03T11:38:17.109Z,46.88
2019-02-03T11:40:43.156Z,46.87
2019-02-03T11:43:09.256Z,46.94
2019-02-03T11:45:35.329Z,46.89
2019-02-03T11:48:01.409Z,46.94
2019-02-03T11:50:27.818Z,46.92
2019-02-03T11:52:54.428Z,46.93
2019-02-03T11:55:20.445Z,46.86
2019-02-03T11:57:46.506Z,46.89
2019-02-03T12:00:12.615Z,46.87
2019-02-03T12:02:41.978Z,46.82
2019-02-03T12:05:06.343Z,46.90
2019-02-03T12:07:32.698Z,46.91
2019-02-03T12:10:00.672Z,46.86
2019-02-03T12:12:26.746Z,47.03
2019-02-03T12:14:52.743Z,46.92
2019-02-03T12:17:18.821Z,47.03
2019-02-03T12:19:44.917Z,46.98
2019-02-03T12:22:11.073Z,47.11
2019-02-03T12:24:37.451Z,47.13
2019-02-03T12:27:03.480Z,46.94
2019-02-03T12:29:29.534Z,46.92
2019-02-03T12:31:55.648Z,47.05
2019-02-03T12:34:21.693Z,47.16
2019-02-03T12:36:47.734Z,46.95
2019-02-03T12:39:13.741Z,47.04
2019-02-03T12:41:39.756Z,47.08
2019-02-03T12:44:05.828Z,47.12
2019-02-03T12:46:31.872Z,46.88
2019-02-03T12:48:57.879Z,47.02
2019-02-03T12:51:23.873Z,47.03
2019-02-03T12:53:49.848Z,47.05
2019-02-03T12:56:15.836Z,47.18
2019-02-03T12:58:41.897Z,47.01
2019-02-03T13:01:07.950Z,47.01
2019-02-03T13:03:33.965Z,47.15
2019-02-03T13:06:00.168Z,46.97
2019-02-03T13:08:26.149Z,46.94
2019-02-03T13:10:52.176Z,47.20
2019-02-03T13:13:18.261Z,47.06
2019-02-03T13:15:44.319Z,47.02
2019-02-03T13:18:10.423Z,47.06
2019-02-03T13:20:36.783Z,47.05
2019-02-03T13:23:02.818Z,47.11
2019-02-03T13:25:28.797Z,47.14
2019-02-03T13:27:54.783Z,49.00
2019-02-03T13:30:20.852Z,47.29
2019-02-03T13:32:46.919Z,47.71
2019-02-03T13:35:13.066Z,47.40
2019-02-03T13:37:39.431Z,47.11
2019-02-03T13:40:05.440Z,47.10
2019-02-03T13:42:37.588Z,46.93
2019-02-03T13:44:59.192Z,46.97
2019-02-03T13:47:25.179Z,46.92
2019-02-03T13:49:51.202Z,47.06
2019-02-03T13:52:17.274Z,46.94
2019-02-03T13:54:43.628Z,46.82
2019-02-03T13:57:09.650Z,46.92
2019-02-03T13:59:35.822Z,46.79
2019-02-03T14:02:01.899Z,46.99
2019-02-03T14:04:27.970Z,47.12
2019-02-03T14:06:53.985Z,46.94
2019-02-03T14:09:20.005Z,46.96
2019-02-03T14:11:48.465Z,47.23
2019-02-03T14:14:14.534Z,47.29
2019-02-03T14:16:40.559Z,47.15
2019-02-03T14:19:06.605Z,47.31
2019-02-03T14:21:32.698Z,47.46
2019-02-03T14:23:58.756Z,47.18
2019-02-03T14:26:24.747Z,47.29
2019-02-03T14:28:51.121Z,47.45
2019-02-03T14:31:17.162Z,47.51
2019-02-03T14:33:43.218Z,47.39
2019-02-03T14:36:09.279Z,47.42
2019-02-03T14:38:35.342Z,47.64
2019-02-03T14:41:01.336Z,47.78
2019-02-03T14:43:27.432Z,48.09
2019-02-03T14:45:53.643Z,48.14
2019-02-03T14:48:19.991Z,48.15
2019-02-03T14:50:46.077Z,48.20
2019-02-03T14:53:12.071Z,48.31
2019-02-03T14:55:38.056Z,48.16
2019-02-03T14:58:04.111Z,48.15
2019-02-03T15:00:30.185Z,48.21
2019-02-03T15:02:56.530Z,48.31
2019-02-03T15:05:22.983Z,48.42
2019-02-03T15:07:49.057Z,48.25
2019-02-03T15:10:15.135Z,48.49
2019-02-03T15:12:41.215Z,48.33
2019-02-03T15:15:07.209Z,48.29
2019-02-03T15:17:33.216Z,48.27
2019-02-03T15:19:59.461Z,48.54
2019-02-03T15:22:25.843Z,48.46
2019-02-03T15:24:52.311Z,48.45
2019-02-03T15:27:18.391Z,48.64
2019-02-03T15:29:44.546Z,48.29
2019-02-03T15:32:10.768Z,48.47
2019-02-03T15:34:36.780Z,48.49
2019-02-03T15:37:02.804Z,48.30
2019-02-03T15:39:28.918Z,48.34
2019-02-03T15:41:55.008Z,48.15
2019-02-03T15:44:21.031Z,48.35
2019-02-03T15:46:47.052Z,48.17
2019-02-03T15:49:13.034Z,48.19
2019-02-03T15:51:39.063Z,48.41
2019-02-03T15:54:05.120Z,48.24
2019-02-03T15:56:31.141Z,48.18
2019-02-03T15:58:57.564Z,48.24
2019-02-03T16:01:23.637Z,48.15
2019-02-03T16:03:49.972Z,48.16
2019-02-03T16:06:16.097Z,48.22
2019-02-03T16:08:42.159Z,48.10
2019-02-03T16:11:08.167Z,47.99
2019-02-03T16:13:37.301Z,48.26
2019-02-03T16:16:01.866Z,48.33
2019-02-03T16:18:27.878Z,48.12
2019-02-03T16:20:53.991Z,48.05
2019-02-03T16:23:19.986Z,47.61
2019-02-03T16:25:46.142Z,47.68
2019-02-03T16:28:12.228Z,47.53
2019-02-03T16:30:38.970Z,47.55
2019-02-03T16:33:05.007Z,47.41
2019-02-03T16:35:31.088Z,47.36
2019-02-03T16:37:57.126Z,47.35
2019-02-03T16:40:23.193Z,47.61
2019-02-03T16:42:49.231Z,47.53
2019-02-03T16:45:15.375Z,47.37
2019-02-03T16:47:41.398Z,47.34
2019-02-03T16:50:07.631Z,47.36
2019-02-03T16:52:33.660Z,47.32
2019-02-03T16:55:00.056Z,47.44
2019-02-03T16:57:26.195Z,47.33
2019-02-03T16:59:52.202Z,47.43
2019-02-03T17:02:18.290Z,47.48
2019-02-03T17:04:44.302Z,47.59
2019-02-03T17:07:10.334Z,47.50
2019-02-03T17:09:36.591Z,47.59
2019-02-03T17:12:02.912Z,47.65
2019-02-03T17:14:29.911Z,47.54
2019-02-03T17:16:56.164Z,47.38
2019-02-03T17:19:22.154Z,47.47
2019-02-03T17:21:48.208Z,47.21
2019-02-03T17:24:14.275Z,47.30
2019-02-03T17:26:40.340Z,47.19
2019-02-03T17:29:06.733Z,47.21
2019-02-03T17:31:32.740Z,47.18
2019-02-03T17:33:58.791Z,47.20
2019-02-03T17:36:24.906Z,47.11
2019-02-03T17:38:53.831Z,47.10
2019-02-03T17:41:18.717Z,47.11
2019-02-03T17:43:44.724Z,47.10
2019-02-03T17:46:10.711Z,47.03
2019-02-03T17:48:37.885Z,47.00
2019-02-03T17:51:05.236Z,48.70
2019-02-03T17:53:31.279Z,47.60
2019-02-03T17:55:57.305Z,47.45
2019-02-03T17:58:23.450Z,47.19
2019-02-03T18:00:49.694Z,47.02
2019-02-03T18:03:15.757Z,47.22
2019-02-03T18:05:41.799Z,46.98
2019-02-03T18:08:07.976Z,46.98
2019-02-03T18:10:34.223Z,46.90
2019-02-03T18:13:00.233Z,47.02
2019-02-03T18:15:26.213Z,47.20
2019-02-03T18:17:52.298Z,47.01
2019-02-03T18:20:19.020Z,47.03
2019-02-03T18:22:45.389Z,47.18
2019-02-03T18:25:11.528Z,47.03
2019-02-03T18:27:38.036Z,48.33
2019-02-03T18:30:04.180Z,47.34
2019-02-03T18:32:30.249Z,47.33
2019-02-03T18:34:56.254Z,47.07
2019-02-03T18:37:22.266Z,47.24
2019-02-03T18:39:48.357Z,51.26
2019-02-03T18:42:14.491Z,46.77
2019-02-03T18:44:40.518Z,46.64
2019-02-03T18:47:07.010Z,46.46
2019-02-03T18:49:33.045Z,47.12
2019-02-03T18:51:59.143Z,46.30
2019-02-03T18:54:25.143Z,45.88
2019-02-03T18:56:51.220Z,45.58
2019-02-03T18:59:17.273Z,45.53
2019-02-03T19:01:43.351Z,46.34
2019-02-03T19:04:09.536Z,45.34
2019-02-03T19:06:35.542Z,45.56
2019-02-03T19:09:01.564Z,45.63
2019-02-03T19:11:29.805Z,45.49
2019-02-03T19:13:55.292Z,46.53
2019-02-03T19:16:21.313Z,45.74
2019-02-03T19:18:47.387Z,46.00
2019-02-03T19:21:13.367Z,46.19
2019-02-03T19:23:39.788Z,46.31
2019-02-03T19:26:05.912Z,46.48
2019-02-03T19:28:32.068Z,46.54
2019-02-03T19:30:58.055Z,46.61
2019-02-03T19:33:24.128Z,46.63
2019-02-03T19:35:50.167Z,46.70
2019-02-03T19:38:16.170Z,46.73
2019-02-03T19:40:42.278Z,46.74
2019-02-03T19:43:08.467Z,46.83
2019-02-03T19:45:34.449Z,46.77
2019-02-03T19:48:00.502Z,46.78
2019-02-03T19:50:26.597Z,46.95
2019-02-03T19:52:52.650Z,46.95
2019-02-03T19:55:18.720Z,46.88
2019-02-03T19:57:45.162Z,46.94
2019-02-03T20:00:11.395Z,46.95
2019-02-03T20:02:37.736Z,46.83
2019-02-03T20:05:03.911Z,46.99
2019-02-03T20:07:30.046Z,47.04
2019-02-03T20:09:56.121Z,46.96
2019-02-03T20:12:24.214Z,46.86
2019-02-03T20:14:49.872Z,46.76
2019-02-03T20:17:15.960Z,46.76
2019-02-03T20:19:42.337Z,46.86
2019-02-03T20:22:08.437Z,46.64
2019-02-03T20:24:34.491Z,46.56
2019-02-03T20:27:00.518Z,46.32
2019-02-03T20:29:26.507Z,46.38
2019-02-03T20:31:52.623Z,46.33
2019-02-03T20:34:19.529Z,46.30
2019-02-03T20:36:45.594Z,46.23
2019-02-03T20:39:11.891Z,46.26
2019-02-03T20:41:37.967Z,46.17
2019-02-03T20:44:04.151Z,46.23
2019-02-03T20:46:30.283Z,46.27
2019-02-03T20:48:56.373Z,46.24
2019-02-03T20:51:22.449Z,46.16
2019-02-03T20:53:50.439Z,46.28
2019-02-03T20:56:16.598Z,46.24
2019-02-03T20:58:42.624Z,46.30
2019-02-03T21:01:08.783Z,46.17
2019-02-03T21:03:34.773Z,46.11
2019-02-03T21:06:00.794Z,46.20
2019-02-03T21:08:26.934Z,46.21
2019-02-03T21:10:53.116Z,46.27
2019-02-03T21:13:19.228Z,46.38
2019-02-03T21:15:45.302Z,46.28
2019-02-03T21:18:14.142Z,46.32
2019-02-03T21:20:40.250Z,46.64
2019-02-03T21:23:06.314Z,46.24
2019-02-03T21:25:32.390Z,46.31
2019-02-03T21:27:58.543Z,46.04
2019-02-03T21:30:24.589Z,46.41
2019-02-03T21:32:50.620Z,46.39
2019-02-03T21:35:17.120Z,46.41
2019-02-03T21:37:43.186Z,46.37
2019-02-03T21:40:09.255Z,46.36
2019-02-03T21:42:35.338Z,46.41
2019-02-03T21:45:01.418Z,46.33
2019-02-03T21:47:27.484Z,46.54
2019-02-03T21:49:53.570Z,46.62
2019-02-03T21:52:19.713Z,46.71
2019-02-03T21:54:45.796Z,46.57
2019-02-03T21:57:14.456Z,46.60
2019-02-03T21:59:39.513Z,46.80
2019-02-03T22:02:05.587Z,46.78
2019-02-03T22:04:31.667Z,47.03
2019-02-03T22:06:57.771Z,46.89
2019-02-03T22:09:23.757Z,47.15
2019-02-03T22:11:50.140Z,46.97
2019-02-03T22:14:16.172Z,46.87
2019-02-03T22:16:42.706Z,46.97
2019-02-03T22:19:08.785Z,47.13
2019-02-03T22:21:34.820Z,47.11
2019-02-03T22:24:02.743Z,47.13
2019-02-03T22:26:28.918Z,47.06
2019-02-03T22:28:55.313Z,46.92
2019-02-03T22:31:21.303Z,46.83
2019-02-03T22:33:47.308Z,46.93
2019-02-03T22:36:13.293Z,46.86
2019-02-03T22:38:39.305Z,46.84
2019-02-03T22:41:05.359Z,46.85
2019-02-03T22:43:31.681Z,46.77
2019-02-03T22:46:06.744Z,46.87
2019-02-03T22:48:25.427Z,46.77
2019-02-03T22:50:51.411Z,46.96
2019-02-03T22:53:17.438Z,46.80
2019-02-03T22:55:43.488Z,46.67
2019-02-03T22:58:09.588Z,46.79
2019-02-03T23:00:35.663Z,46.80
2019-02-03T23:03:01.730Z,46.67
2019-02-03T23:05:28.164Z,46.64
2019-02-03T23:07:54.217Z,46.62
2019-02-03T23:10:20.319Z,47.63
2019-02-03T23:12:46.303Z,46.75
2019-02-03T23:15:12.294Z,46.80
2019-02-03T23:17:38.303Z,47.10
2019-02-03T23:20:04.296Z,47.01
2019-02-03T23:22:30.311Z,46.76
2019-02-03T23:24:56.679Z,46.84
2019-02-03T23:27:22.736Z,46.84
2019-02-03T23:29:48.742Z,47.19
2019-02-03T23:32:14.788Z,47.10
2019-02-03T23:34:40.853Z,46.79
2019-02-03T23:37:06.835Z,46.93
2019-02-03T23:39:32.855Z,47.20
2019-02-03T23:41:58.850Z,46.86
2019-02-03T23:44:25.135Z,47.06
2019-02-03T23:46:51.126Z,47.14
2019-02-03T23:49:17.112Z,47.04
2019-02-03T23:51:43.110Z,46.96
2019-02-03T23:54:09.132Z,46.86
2019-02-03T23:56:35.122Z,46.70
2019-02-03T23:59:01.226Z,47.05
